Terminal Aerodrome Forecast
Issued by NWS Binghamton, NY

Home | Current Version | Previous Version | Text Only | Print | Product List | Glossary On
Versions: 1 2 3 4 5 6 7 8 9 10 11 12 13 14 15 16 17 18 19 20 21 22 23
000
FTUS41 KBGM 171700
TAFBGM
TAF
KBGM 171731Z 1718/1818 26005KT P6SM BKN050
     FM180100 VRB04KT P6SM SKC
     FM180700 26005KT P6SM SCT250
     FM181500 33009KT P6SM OVC050=

USA.gov is the U.S. government's official web portal to all federal, state and local government web resources and services.